sensor_id;sensor_type;location;lat;lon;timestamp;P1;durP1;ratioP1;P2;durP2;ratioP2
85038;SDS011;75366;54.588;18.456;2024-03-08T00:05:05;22.70;;;10.90;;
85038;SDS011;75366;54.588;18.456;2024-03-08T00:10:28;19.00;;;10.90;;
85038;SDS011;75366;54.588;18.456;2024-03-08T00:15:32;24.60;;;11.30;;
85038;SDS011;75366;54.588;18.456;2024-03-08T00:20:33;24.70;;;11.70;;
85038;SDS011;75366;54.588;18.456;2024-03-08T00:25:35;21.10;;;11.10;;
85038;SDS011;75366;54.588;18.456;2024-03-08T00:30:36;18.50;;;10.70;;
85038;SDS011;75366;54.588;18.456;2024-03-08T00:35:38;20.90;;;10.70;;
85038;SDS011;75366;54.588;18.456;2024-03-08T00:40:40;27.20;;;11.80;;
85038;SDS011;75366;54.588;18.456;2024-03-08T00:45:42;24.80;;;13.50;;
85038;SDS011;75366;54.588;18.456;2024-03-08T00:50:43;18.30;;;10.40;;
85038;SDS011;75366;54.588;18.456;2024-03-08T00:55:48;20.60;;;11.20;;
85038;SDS011;75366;54.588;18.456;2024-03-08T01:00:50;17.50;;;10.10;;
85038;SDS011;75366;54.588;18.456;2024-03-08T01:05:51;16.80;;;9.30;;
85038;SDS011;75366;54.588;18.456;2024-03-08T01:10:53;17.50;;;8.70;;
85038;SDS011;75366;54.588;18.456;2024-03-08T01:15:55;18.80;;;10.70;;
85038;SDS011;75366;54.588;18.456;2024-03-08T01:20:57;15.90;;;9.40;;
85038;SDS011;75366;54.588;18.456;2024-03-08T01:25:58;18.00;;;9.70;;
85038;SDS011;75366;54.588;18.456;2024-03-08T01:31:00;15.90;;;7.90;;
85038;SDS011;75366;54.588;18.456;2024-03-08T01:36:02;16.40;;;7.80;;
85038;SDS011;75366;54.588;18.456;2024-03-08T01:41:04;14.30;;;7.90;;
85038;SDS011;75366;54.588;18.456;2024-03-08T01:46:06;16.30;;;7.60;;
85038;SDS011;75366;54.588;18.456;2024-03-08T01:51:10;18.20;;;9.20;;
85038;SDS011;75366;54.588;18.456;2024-03-08T01:56:13;15.90;;;9.20;;
85038;SDS011;75366;54.588;18.456;2024-03-08T02:01:16;17.10;;;9.20;;
85038;SDS011;75366;54.588;18.456;2024-03-08T02:06:20;19.50;;;10.50;;
85038;SDS011;75366;54.588;18.456;2024-03-08T02:11:22;22.30;;;11.80;;
85038;SDS011;75366;54.588;18.456;2024-03-08T02:16:24;21.90;;;10.70;;
85038;SDS011;75366;54.588;18.456;2024-03-08T02:21:26;20.40;;;11.80;;
85038;SDS011;75366;54.588;18.456;2024-03-08T02:26:28;23.70;;;12.20;;
85038;SDS011;75366;54.588;18.456;2024-03-08T02:31:30;21.50;;;11.40;;
85038;SDS011;75366;54.588;18.456;2024-03-08T02:36:31;27.60;;;12.80;;
85038;SDS011;75366;54.588;18.456;2024-03-08T02:41:36;29.20;;;13.50;;
85038;SDS011;75366;54.588;18.456;2024-03-08T02:46:38;23.90;;;14.30;;
85038;SDS011;75366;54.588;18.456;2024-03-08T02:51:39;28.50;;;14.20;;
85038;SDS011;75366;54.588;18.456;2024-03-08T02:56:41;25.50;;;15.50;;
85038;SDS011;75366;54.588;18.456;2024-03-08T03:01:43;27.20;;;14.00;;
85038;SDS011;75366;54.588;18.456;2024-03-08T03:06:45;29.00;;;14.90;;
85038;SDS011;75366;54.588;18.456;2024-03-08T03:11:47;27.30;;;13.50;;
85038;SDS011;75366;54.588;18.456;2024-03-08T03:16:48;24.40;;;13.70;;
85038;SDS011;75366;54.588;18.456;2024-03-08T03:21:51;27.60;;;15.30;;
85038;SDS011;75366;54.588;18.456;2024-03-08T03:26:53;30.70;;;14.00;;
85038;SDS011;75366;54.588;18.456;2024-03-08T03:31:56;22.50;;;11.60;;
85038;SDS011;75366;54.588;18.456;2024-03-08T03:36:58;22.40;;;9.00;;
85038;SDS011;75366;54.588;18.456;2024-03-08T03:42:00;18.30;;;8.40;;
85038;SDS011;75366;54.588;18.456;2024-03-08T03:47:03;15.70;;;8.30;;
85038;SDS011;75366;54.588;18.456;2024-03-08T03:52:05;14.90;;;8.40;;
85038;SDS011;75366;54.588;18.456;2024-03-08T03:57:06;14.00;;;7.60;;
85038;SDS011;75366;54.588;18.456;2024-03-08T04:02:09;13.50;;;7.90;;
85038;SDS011;75366;54.588;18.456;2024-03-08T04:07:11;19.30;;;9.40;;
85038;SDS011;75366;54.588;18.456;2024-03-08T04:12:13;21.20;;;11.10;;
85038;SDS011;75366;54.588;18.456;2024-03-08T04:17:16;19.90;;;10.30;;
85038;SDS011;75366;54.588;18.456;2024-03-08T04:22:19;20.00;;;10.40;;
85038;SDS011;75366;54.588;18.456;2024-03-08T04:27:21;14.30;;;8.30;;
85038;SDS011;75366;54.588;18.456;2024-03-08T04:32:23;15.10;;;9.70;;
85038;SDS011;75366;54.588;18.456;2024-03-08T04:37:24;19.30;;;9.10;;
85038;SDS011;75366;54.588;18.456;2024-03-08T04:42:29;18.20;;;9.80;;
85038;SDS011;75366;54.588;18.456;2024-03-08T04:47:33;18.50;;;9.90;;
85038;SDS011;75366;54.588;18.456;2024-03-08T04:52:38;17.80;;;9.60;;
85038;SDS011;75366;54.588;18.456;2024-03-08T04:57:39;22.70;;;9.40;;
85038;SDS011;75366;54.588;18.456;2024-03-08T05:02:43;16.70;;;8.80;;
85038;SDS011;75366;54.588;18.456;2024-03-08T05:07:45;17.60;;;8.40;;
85038;SDS011;75366;54.588;18.456;2024-03-08T05:12:46;18.70;;;8.90;;
85038;SDS011;75366;54.588;18.456;2024-03-08T05:17:48;17.00;;;9.90;;
85038;SDS011;75366;54.588;18.456;2024-03-08T05:22:50;17.60;;;9.00;;
85038;SDS011;75366;54.588;18.456;2024-03-08T05:27:53;18.20;;;10.00;;
85038;SDS011;75366;54.588;18.456;2024-03-08T05:32:54;19.00;;;8.80;;
85038;SDS011;75366;54.588;18.456;2024-03-08T05:37:58;15.90;;;9.40;;
85038;SDS011;75366;54.588;18.456;2024-03-08T05:42:59;13.20;;;7.50;;
85038;SDS011;75366;54.588;18.456;2024-03-08T05:48:01;16.70;;;8.20;;
85038;SDS011;75366;54.588;18.456;2024-03-08T05:53:03;17.20;;;9.10;;
85038;SDS011;75366;54.588;18.456;2024-03-08T05:58:04;17.50;;;9.90;;
85038;SDS011;75366;54.588;18.456;2024-03-08T06:03:08;11.60;;;6.80;;
85038;SDS011;75366;54.588;18.456;2024-03-08T06:08:10;15.80;;;8.00;;
85038;SDS011;75366;54.588;18.456;2024-03-08T06:13:12;14.80;;;7.00;;
85038;SDS011;75366;54.588;18.456;2024-03-08T06:18:14;15.50;;;7.90;;
85038;SDS011;75366;54.588;18.456;2024-03-08T06:23:16;14.00;;;7.30;;
85038;SDS011;75366;54.588;18.456;2024-03-08T06:28:19;10.50;;;5.80;;
85038;SDS011;75366;54.588;18.456;2024-03-08T06:33:20;18.40;;;7.30;;
85038;SDS011;75366;54.588;18.456;2024-03-08T06:38:23;12.90;;;7.00;;
85038;SDS011;75366;54.588;18.456;2024-03-08T06:43:25;13.60;;;6.50;;
85038;SDS011;75366;54.588;18.456;2024-03-08T06:48:34;11.80;;;7.30;;
85038;SDS011;75366;54.588;18.456;2024-03-08T06:53:36;14.10;;;6.70;;
85038;SDS011;75366;54.588;18.456;2024-03-08T06:58:58;14.20;;;6.10;;
85038;SDS011;75366;54.588;18.456;2024-03-08T07:04:00;11.20;;;7.60;;
85038;SDS011;75366;54.588;18.456;2024-03-08T07:09:06;11.30;;;5.80;;
85038;SDS011;75366;54.588;18.456;2024-03-08T07:14:08;8.50;;;5.10;;
85038;SDS011;75366;54.588;18.456;2024-03-08T07:19:29;10.60;;;5.20;;
85038;SDS011;75366;54.588;18.456;2024-03-08T07:24:51;10.70;;;6.40;;
85038;SDS011;75366;54.588;18.456;2024-03-08T07:29:56;11.20;;;7.10;;
85038;SDS011;75366;54.588;18.456;2024-03-08T07:35:02;13.90;;;6.40;;
85038;SDS011;75366;54.588;18.456;2024-03-08T07:40:24;11.70;;;5.00;;
85038;SDS011;75366;54.588;18.456;2024-03-08T07:45:25;16.80;;;7.90;;
85038;SDS011;75366;54.588;18.456;2024-03-08T07:50:27;12.60;;;6.30;;
85038;SDS011;75366;54.588;18.456;2024-03-08T07:55:29;7.40;;;4.50;;
85038;SDS011;75366;54.588;18.456;2024-03-08T08:00:32;7.70;;;4.60;;
85038;SDS011;75366;54.588;18.456;2024-03-08T08:05:34;5.70;;;4.40;;
85038;SDS011;75366;54.588;18.456;2024-03-08T08:10:37;4.80;;;3.40;;
85038;SDS011;75366;54.588;18.456;2024-03-08T08:15:39;6.30;;;4.10;;
85038;SDS011;75366;54.588;18.456;2024-03-08T08:20:40;6.30;;;4.60;;
85038;SDS011;75366;54.588;18.456;2024-03-08T08:25:42;8.00;;;4.90;;
85038;SDS011;75366;54.588;18.456;2024-03-08T08:30:44;8.80;;;3.60;;
85038;SDS011;75366;54.588;18.456;2024-03-08T08:35:46;10.70;;;6.00;;
85038;SDS011;75366;54.588;18.456;2024-03-08T08:40:49;10.80;;;7.50;;
85038;SDS011;75366;54.588;18.456;2024-03-08T08:45:51;9.40;;;5.50;;
85038;SDS011;75366;54.588;18.456;2024-03-08T08:50:55;8.00;;;5.10;;
85038;SDS011;75366;54.588;18.456;2024-03-08T08:55:57;7.50;;;3.60;;
85038;SDS011;75366;54.588;18.456;2024-03-08T09:00:59;4.90;;;4.10;;
85038;SDS011;75366;54.588;18.456;2024-03-08T09:06:01;5.30;;;3.30;;
85038;SDS011;75366;54.588;18.456;2024-03-08T09:11:03;8.80;;;4.10;;
85038;SDS011;75366;54.588;18.456;2024-03-08T09:16:06;3.30;;;2.00;;
85038;SDS011;75366;54.588;18.456;2024-03-08T09:21:08;7.40;;;3.60;;
85038;SDS011;75366;54.588;18.456;2024-03-08T09:26:11;8.80;;;3.70;;
85038;SDS011;75366;54.588;18.456;2024-03-08T09:31:23;4.90;;;2.90;;
85038;SDS011;75366;54.588;18.456;2024-03-08T09:36:25;7.60;;;4.40;;
85038;SDS011;75366;54.588;18.456;2024-03-08T09:41:28;11.00;;;6.10;;
85038;SDS011;75366;54.588;18.456;2024-03-08T09:46:31;8.70;;;5.20;;
85038;SDS011;75366;54.588;18.456;2024-03-08T09:51:33;4.40;;;3.00;;
85038;SDS011;75366;54.588;18.456;2024-03-08T09:56:41;5.00;;;3.10;;
85038;SDS011;75366;54.588;18.456;2024-03-08T10:01:45;8.20;;;5.50;;
85038;SDS011;75366;54.588;18.456;2024-03-08T10:06:47;8.30;;;4.20;;
85038;SDS011;75366;54.588;18.456;2024-03-08T10:11:49;10.00;;;5.10;;
85038;SDS011;75366;54.588;18.456;2024-03-08T10:16:51;11.10;;;5.00;;
85038;SDS011;75366;54.588;18.456;2024-03-08T10:21:53;9.80;;;5.30;;
85038;SDS011;75366;54.588;18.456;2024-03-08T10:26:58;9.10;;;4.60;;
85038;SDS011;75366;54.588;18.456;2024-03-08T10:32:06;8.70;;;5.90;;
85038;SDS011;75366;54.588;18.456;2024-03-08T10:37:09;6.10;;;4.80;;
85038;SDS011;75366;54.588;18.456;2024-03-08T10:42:19;6.10;;;4.50;;
85038;SDS011;75366;54.588;18.456;2024-03-08T10:47:30;8.90;;;6.40;;
85038;SDS011;75366;54.588;18.456;2024-03-08T10:52:32;6.30;;;4.00;;
85038;SDS011;75366;54.588;18.456;2024-03-08T10:57:38;7.00;;;4.50;;
85038;SDS011;75366;54.588;18.456;2024-03-08T11:02:44;11.70;;;5.80;;
85038;SDS011;75366;54.588;18.456;2024-03-08T11:07:46;9.00;;;6.50;;
85038;SDS011;75366;54.588;18.456;2024-03-08T11:13:27;10.60;;;6.40;;
85038;SDS011;75366;54.588;18.456;2024-03-08T11:24:12;8.50;;;6.20;;
85038;SDS011;75366;54.588;18.456;2024-03-08T11:34:28;14.70;;;9.00;;
85038;SDS011;75366;54.588;18.456;2024-03-08T11:39:31;10.20;;;5.70;;
85038;SDS011;75366;54.588;18.456;2024-03-08T11:44:33;9.00;;;6.10;;
85038;SDS011;75366;54.588;18.456;2024-03-08T11:49:35;9.80;;;5.50;;
85038;SDS011;75366;54.588;18.456;2024-03-08T11:54:37;9.60;;;7.10;;
85038;SDS011;75366;54.588;18.456;2024-03-08T11:59:39;8.20;;;5.50;;
85038;SDS011;75366;54.588;18.456;2024-03-08T12:04:40;9.90;;;7.00;;
85038;SDS011;75366;54.588;18.456;2024-03-08T12:09:43;6.60;;;4.50;;
85038;SDS011;75366;54.588;18.456;2024-03-08T12:14:47;11.50;;;8.20;;
85038;SDS011;75366;54.588;18.456;2024-03-08T12:19:50;6.00;;;4.60;;
85038;SDS011;75366;54.588;18.456;2024-03-08T12:25:13;8.40;;;5.80;;
85038;SDS011;75366;54.588;18.456;2024-03-08T12:30:21;13.90;;;6.90;;
85038;SDS011;75366;54.588;18.456;2024-03-08T12:35:25;5.40;;;3.90;;
85038;SDS011;75366;54.588;18.456;2024-03-08T12:40:29;5.40;;;4.30;;
85038;SDS011;75366;54.588;18.456;2024-03-08T12:45:34;5.00;;;3.90;;
85038;SDS011;75366;54.588;18.456;2024-03-08T12:50:35;4.60;;;3.70;;
85038;SDS011;75366;54.588;18.456;2024-03-08T12:55:37;3.90;;;3.10;;
85038;SDS011;75366;54.588;18.456;2024-03-08T13:00:39;3.70;;;2.60;;
85038;SDS011;75366;54.588;18.456;2024-03-08T13:05:44;4.90;;;3.40;;
85038;SDS011;75366;54.588;18.456;2024-03-08T13:11:09;4.50;;;3.10;;
85038;SDS011;75366;54.588;18.456;2024-03-08T13:16:15;4.70;;;3.00;;
85038;SDS011;75366;54.588;18.456;2024-03-08T13:21:18;4.80;;;2.90;;
85038;SDS011;75366;54.588;18.456;2024-03-08T13:26:39;5.90;;;3.60;;
85038;SDS011;75366;54.588;18.456;2024-03-08T13:31:44;4.20;;;3.60;;
85038;SDS011;75366;54.588;18.456;2024-03-08T13:36:46;5.80;;;4.30;;
85038;SDS011;75366;54.588;18.456;2024-03-08T13:41:48;4.50;;;2.90;;
85038;SDS011;75366;54.588;18.456;2024-03-08T13:46:49;4.70;;;3.40;;
85038;SDS011;75366;54.588;18.456;2024-03-08T13:51:55;17.80;;;7.60;;
85038;SDS011;75366;54.588;18.456;2024-03-08T13:56:57;14.50;;;7.00;;
85038;SDS011;75366;54.588;18.456;2024-03-08T14:01:59;6.20;;;3.90;;
85038;SDS011;75366;54.588;18.456;2024-03-08T14:07:03;5.70;;;3.90;;
85038;SDS011;75366;54.588;18.456;2024-03-08T14:12:06;6.00;;;3.70;;
85038;SDS011;75366;54.588;18.456;2024-03-08T14:17:08;5.20;;;3.80;;
85038;SDS011;75366;54.588;18.456;2024-03-08T14:22:12;4.20;;;2.60;;
85038;SDS011;75366;54.588;18.456;2024-03-08T14:27:15;5.60;;;3.40;;
85038;SDS011;75366;54.588;18.456;2024-03-08T14:32:19;6.30;;;3.10;;
85038;SDS011;75366;54.588;18.456;2024-03-08T14:37:24;5.70;;;3.70;;
85038;SDS011;75366;54.588;18.456;2024-03-08T14:42:30;3.90;;;2.70;;
85038;SDS011;75366;54.588;18.456;2024-03-08T14:47:34;5.00;;;2.90;;
85038;SDS011;75366;54.588;18.456;2024-03-08T14:52:36;3.90;;;3.10;;
85038;SDS011;75366;54.588;18.456;2024-03-08T14:57:44;5.30;;;3.10;;
85038;SDS011;75366;54.588;18.456;2024-03-08T15:03:05;4.40;;;2.50;;
85038;SDS011;75366;54.588;18.456;2024-03-08T15:08:27;5.60;;;3.60;;
85038;SDS011;75366;54.588;18.456;2024-03-08T15:13:29;5.90;;;4.20;;
85038;SDS011;75366;54.588;18.456;2024-03-08T15:18:43;5.90;;;2.70;;
85038;SDS011;75366;54.588;18.456;2024-03-08T15:23:53;6.90;;;3.90;;
85038;SDS011;75366;54.588;18.456;2024-03-08T15:28:55;2.60;;;2.30;;
85038;SDS011;75366;54.588;18.456;2024-03-08T15:33:58;5.00;;;2.80;;
85038;SDS011;75366;54.588;18.456;2024-03-08T15:44:15;3.80;;;3.40;;
85038;SDS011;75366;54.588;18.456;2024-03-08T15:49:17;4.40;;;3.20;;
85038;SDS011;75366;54.588;18.456;2024-03-08T15:54:20;5.30;;;2.80;;
85038;SDS011;75366;54.588;18.456;2024-03-08T15:59:22;3.90;;;2.30;;
85038;SDS011;75366;54.588;18.456;2024-03-08T16:04:24;4.50;;;2.70;;
85038;SDS011;75366;54.588;18.456;2024-03-08T16:09:27;4.90;;;3.70;;
85038;SDS011;75366;54.588;18.456;2024-03-08T16:14:30;6.80;;;3.00;;
85038;SDS011;75366;54.588;18.456;2024-03-08T16:19:52;7.50;;;3.60;;
85038;SDS011;75366;54.588;18.456;2024-03-08T16:24:53;5.00;;;2.50;;
85038;SDS011;75366;54.588;18.456;2024-03-08T16:29:58;3.90;;;2.60;;
85038;SDS011;75366;54.588;18.456;2024-03-08T16:35:00;4.90;;;3.70;;
85038;SDS011;75366;54.588;18.456;2024-03-08T16:40:08;5.10;;;2.80;;
85038;SDS011;75366;54.588;18.456;2024-03-08T16:45:29;7.40;;;4.60;;
85038;SDS011;75366;54.588;18.456;2024-03-08T16:50:31;4.00;;;2.90;;
85038;SDS011;75366;54.588;18.456;2024-03-08T16:55:32;5.70;;;3.40;;
85038;SDS011;75366;54.588;18.456;2024-03-08T17:00:55;4.20;;;2.70;;
85038;SDS011;75366;54.588;18.456;2024-03-08T17:05:57;3.70;;;3.10;;
85038;SDS011;75366;54.588;18.456;2024-03-08T17:10:59;2.90;;;2.30;;
85038;SDS011;75366;54.588;18.456;2024-03-08T17:16:01;5.80;;;2.20;;
85038;SDS011;75366;54.588;18.456;2024-03-08T17:21:04;6.60;;;2.80;;
85038;SDS011;75366;54.588;18.456;2024-03-08T17:26:07;3.50;;;2.60;;
85038;SDS011;75366;54.588;18.456;2024-03-08T17:31:10;3.40;;;2.80;;
85038;SDS011;75366;54.588;18.456;2024-03-08T17:36:15;5.70;;;2.90;;
85038;SDS011;75366;54.588;18.456;2024-03-08T17:41:17;4.60;;;3.40;;
85038;SDS011;75366;54.588;18.456;2024-03-08T17:46:23;6.10;;;2.80;;
85038;SDS011;75366;54.588;18.456;2024-03-08T17:51:26;9.70;;;5.70;;
85038;SDS011;75366;54.588;18.456;2024-03-08T17:56:28;7.50;;;5.10;;
85038;SDS011;75366;54.588;18.456;2024-03-08T18:01:29;5.80;;;4.70;;
85038;SDS011;75366;54.588;18.456;2024-03-08T18:06:35;4.30;;;3.70;;
85038;SDS011;75366;54.588;18.456;2024-03-08T18:11:41;3.20;;;2.50;;
85038;SDS011;75366;54.588;18.456;2024-03-08T18:16:45;3.60;;;2.90;;
85038;SDS011;75366;54.588;18.456;2024-03-08T18:21:46;6.30;;;4.30;;
85038;SDS011;75366;54.588;18.456;2024-03-08T18:26:49;6.60;;;4.00;;
85038;SDS011;75366;54.588;18.456;2024-03-08T18:32:11;8.60;;;4.70;;
85038;SDS011;75366;54.588;18.456;2024-03-08T18:37:13;18.90;;;10.30;;
85038;SDS011;75366;54.588;18.456;2024-03-08T18:42:14;9.00;;;5.50;;
85038;SDS011;75366;54.588;18.456;2024-03-08T18:47:16;12.30;;;5.80;;
85038;SDS011;75366;54.588;18.456;2024-03-08T18:52:19;31.80;;;11.80;;
85038;SDS011;75366;54.588;18.456;2024-03-08T18:57:41;46.00;;;12.20;;
85038;SDS011;75366;54.588;18.456;2024-03-08T19:02:45;102.80;;;38.00;;
85038;SDS011;75366;54.588;18.456;2024-03-08T19:08:06;23.80;;;8.60;;
85038;SDS011;75366;54.588;18.456;2024-03-08T19:13:28;8.20;;;4.10;;
85038;SDS011;75366;54.588;18.456;2024-03-08T19:18:29;6.40;;;4.00;;
85038;SDS011;75366;54.588;18.456;2024-03-08T19:23:34;3.80;;;2.40;;
85038;SDS011;75366;54.588;18.456;2024-03-08T19:28:39;9.80;;;4.90;;
85038;SDS011;75366;54.588;18.456;2024-03-08T19:33:41;5.00;;;3.20;;
85038;SDS011;75366;54.588;18.456;2024-03-08T19:38:47;3.40;;;2.90;;
85038;SDS011;75366;54.588;18.456;2024-03-08T19:43:49;11.80;;;4.90;;
85038;SDS011;75366;54.588;18.456;2024-03-08T19:48:51;5.30;;;3.30;;
85038;SDS011;75366;54.588;18.456;2024-03-08T19:54:00;5.10;;;3.60;;
85038;SDS011;75366;54.588;18.456;2024-03-08T19:59:02;10.90;;;4.80;;
85038;SDS011;75366;54.588;18.456;2024-03-08T20:04:04;5.70;;;4.10;;
85038;SDS011;75366;54.588;18.456;2024-03-08T20:09:08;6.60;;;3.70;;
85038;SDS011;75366;54.588;18.456;2024-03-08T20:14:13;4.40;;;3.20;;
85038;SDS011;75366;54.588;18.456;2024-03-08T20:19:15;7.90;;;4.80;;
85038;SDS011;75366;54.588;18.456;2024-03-08T20:24:17;4.80;;;3.20;;
85038;SDS011;75366;54.588;18.456;2024-03-08T20:29:24;5.10;;;4.00;;
85038;SDS011;75366;54.588;18.456;2024-03-08T20:34:29;5.20;;;3.60;;
85038;SDS011;75366;54.588;18.456;2024-03-08T20:39:31;5.10;;;4.60;;
85038;SDS011;75366;54.588;18.456;2024-03-08T20:44:32;5.20;;;3.70;;
85038;SDS011;75366;54.588;18.456;2024-03-08T20:49:34;5.10;;;3.60;;
85038;SDS011;75366;54.588;18.456;2024-03-08T20:54:42;9.70;;;5.90;;
85038;SDS011;75366;54.588;18.456;2024-03-08T20:59:44;9.00;;;7.20;;
85038;SDS011;75366;54.588;18.456;2024-03-08T21:04:49;4.60;;;3.70;;
85038;SDS011;75366;54.588;18.456;2024-03-08T21:09:52;7.00;;;4.90;;
85038;SDS011;75366;54.588;18.456;2024-03-08T21:15:00;6.90;;;4.60;;
85038;SDS011;75366;54.588;18.456;2024-03-08T21:20:05;5.40;;;4.00;;
85038;SDS011;75366;54.588;18.456;2024-03-08T21:30:30;4.90;;;3.90;;
85038;SDS011;75366;54.588;18.456;2024-03-08T21:35:33;4.50;;;3.30;;
85038;SDS011;75366;54.588;18.456;2024-03-08T21:40:37;5.50;;;3.90;;
85038;SDS011;75366;54.588;18.456;2024-03-08T21:45:58;5.20;;;3.90;;
85038;SDS011;75366;54.588;18.456;2024-03-08T21:51:00;6.50;;;3.70;;
85038;SDS011;75366;54.588;18.456;2024-03-08T21:56:02;5.70;;;4.50;;
85038;SDS011;75366;54.588;18.456;2024-03-08T22:01:23;8.30;;;4.70;;
85038;SDS011;75366;54.588;18.456;2024-03-08T22:06:45;5.60;;;4.90;;
85038;SDS011;75366;54.588;18.456;2024-03-08T22:11:50;7.00;;;4.10;;
85038;SDS011;75366;54.588;18.456;2024-03-08T22:16:53;4.70;;;4.10;;
85038;SDS011;75366;54.588;18.456;2024-03-08T22:21:55;7.90;;;5.80;;
85038;SDS011;75366;54.588;18.456;2024-03-08T22:26:56;8.80;;;4.80;;
85038;SDS011;75366;54.588;18.456;2024-03-08T22:31:58;7.30;;;5.40;;
85038;SDS011;75366;54.588;18.456;2024-03-08T22:36:59;5.50;;;4.90;;
85038;SDS011;75366;54.588;18.456;2024-03-08T22:42:01;6.40;;;5.10;;
85038;SDS011;75366;54.588;18.456;2024-03-08T22:47:03;7.60;;;5.30;;
85038;SDS011;75366;54.588;18.456;2024-03-08T22:52:06;6.90;;;5.10;;
85038;SDS011;75366;54.588;18.456;2024-03-08T22:57:08;8.80;;;4.90;;
85038;SDS011;75366;54.588;18.456;2024-03-08T23:02:10;4.90;;;4.10;;
85038;SDS011;75366;54.588;18.456;2024-03-08T23:07:12;3.50;;;2.60;;
85038;SDS011;75366;54.588;18.456;2024-03-08T23:12:14;8.00;;;6.40;;
85038;SDS011;75366;54.588;18.456;2024-03-08T23:17:16;8.90;;;5.50;;
85038;SDS011;75366;54.588;18.456;2024-03-08T23:22:18;7.80;;;4.50;;
85038;SDS011;75366;54.588;18.456;2024-03-08T23:27:21;7.10;;;4.30;;
85038;SDS011;75366;54.588;18.456;2024-03-08T23:32:23;5.70;;;4.80;;
85038;SDS011;75366;54.588;18.456;2024-03-08T23:37:24;5.40;;;4.20;;
85038;SDS011;75366;54.588;18.456;2024-03-08T23:42:26;4.10;;;3.20;;
85038;SDS011;75366;54.588;18.456;2024-03-08T23:47:29;5.70;;;3.90;;
85038;SDS011;75366;54.588;18.456;2024-03-08T23:52:32;7.20;;;4.30;;
85038;SDS011;75366;54.588;18.456;2024-03-08T23:57:36;5.80;;;4.60;;
